Spriggs Payne Airport

Jump to: basic info | weather | frequencies | runways | comments

Related pages: nearby airports | nearby navaids | notams | map

Basic information (top)

Codes: MLW GLMR
Location: lon 6.289060, lat -10.758700, elev 25 ft / 8 m msl
Status: medium_airport
Scheduled airline service: yes
Links: Wikipedia Mobile

Weather (top)

Current conditions for Roberts International Airport 24nm (44km) E (rec'd 2014/09/30 05:30Z):

GLRB 300530Z 130/03KT 9000 -DZ FEW006 BKN011 FEW022 CB 23/22 Q1013 TEMPO DZ RMK CB-S/SW

Airport forecast for Roberts International Airport 24nm (44km) E (rec'd 2014/09/29 12:54Z):

TAF GLRB 291000Z 2912/3018 20014KT 7000 TSRA SCT004 BKN014 FEW024CB 
      BECMG 2915/2917 24010KT 6000 FM 291800 18008KT 9999 BKN016 
      TEMPO 3001/3006 02004KT 9999 BKN014

Frequencies (top)

Verify before use: may be inaccurate or out of date.

APP: 124.5 MHz (ROBERTS APP)
TWR: 118.7 MHz (SPRIGGS TWR)

Runways (top)

05/23: 6,000 x 100 ft (1,829 x 30 m) — paved — lighted — threshold 05 displaced 200 ft (61 m) — threshold 23 displaced 200 ft (61 m)

Latest comments (top)

No comments yet for Spriggs Payne Airport

More... (top)

See also NOTAMs and nearby airports and navaids, or visit the Spriggs Payne Airport page at the main OurAirports website..